Mr Luke — WDC3056 — position and weather

sailwx.info

Track history (hours):
 
Tides and Currents Weather Stations Pressure Air Temp Water Temp Dewpoint Dewpoint Depression Visibility Wind Speed Wind Dir Waves Ship Positions

Mr Luke

Owner: CENTRAL BOAT RENTALS, BERWICK, LA. More information available from US FCC via Universal Licensing System and Coast Guard Vessel Documentation Center.

Last reported at 2017-Oct-22 11:54 UTC. Time now 2017-Nov-20 00:25 UTC.
Position N 29°32' W 090°49'.
Warning: this ship's position is 28 days out of date.

Length 20 m; draft 3 m.

Type: Tug. MMSI: 367002080.

Date/timePositionNaut miles runAvg speedWind from/ knotsBaromVisibWave heightAir tempDewpointWater temp
2017-Oct-22 11:54N 29°32' W 090°49'2 6.1
2017-Oct-22 11:30N 29°32' W 090°46'3 6.0
2017-Oct-22 11:00N 29°34' W 090°43'2 4.1
2017-Oct-22 10:30N 29°36' W 090°43'1 2.2
2017-Oct-22 10:00N 29°37' W 090°41'3 6.0
2017-Oct-22 09:30N 29°35' W 090°38'3 5.7
2017-Oct-22 09:00N 29°35' W 090°35'3 6.2
2017-Oct-22 08:30N 29°34' W 090°32'  
2017-Oct-16 07:29N 29°33' W 090°28'3 5.6
2017-Oct-16 07:00N 29°34' W 090°32'3 5.3
2017-Oct-16 06:30N 29°34' W 090°34'3 5.2
2017-Oct-16 06:00N 29°35' W 090°37'2 5.0
2017-Oct-16 05:30N 29°36' W 090°40'2 4.5
2017-Oct-16 05:00N 29°37' W 090°42'2 4.8
2017-Oct-16 04:30N 29°34' W 090°43'3 5.3
2017-Oct-16 04:00N 29°32' W 090°42'3 5.6
2017-Oct-16 03:30N 29°29' W 090°43'3 5.5
2017-Oct-16 03:00N 29°26' W 090°43'1 0.0
2017-Oct-15 01:31N 29°26' W 090°43'0 6.8
2017-Oct-15 01:30N 29°26' W 090°43'3 6.8
2017-Oct-15 01:00N 29°29' W 090°43'3 6.7
2017-Oct-15 00:30N 29°32' W 090°42'2 4.1
2017-Oct-15 00:00N 29°34' W 090°44'1 2.5
2017-Oct-14 23:30N 29°33' W 090°45'1 2.9
2017-Oct-14 23:00N 29°32' W 090°46'3 6.0
2017-Oct-14 22:30N 29°32' W 090°49'  
Track history (hours):
 
Tides and Currents Weather Stations Pressure Air Temp Water Temp Dewpoint Dewpoint Depression Visibility Wind Speed Wind Dir Waves Ship Positions

Mr Luke

Owner: CENTRAL BOAT RENTALS, BERWICK, LA. More information available from US FCC via Universal Licensing System and Coast Guard Vessel Documentation Center.

Last reported at 2017-Oct-22 11:54 UTC. Time now 2017-Nov-20 00:25 UTC.
Position N 29°32' W 090°49'.
Warning: this ship's position is 28 days out of date.

Length 20 m; draft 3 m.

Type: Tug. MMSI: 367002080.

Date/timePositionNaut miles runAvg speedWind from/ knotsBaromVisibWave heightAir tempDewpointWater temp
2017-Oct-22 11:54N 29°32' W 090°49'2 6.1
2017-Oct-22 11:30N 29°32' W 090°46'3 6.0
2017-Oct-22 11:00N 29°34' W 090°43'2 4.1
2017-Oct-22 10:30N 29°36' W 090°43'1 2.2
2017-Oct-22 10:00N 29°37' W 090°41'3 6.0
2017-Oct-22 09:30N 29°35' W 090°38'3 5.7
2017-Oct-22 09:00N 29°35' W 090°35'3 6.2
2017-Oct-22 08:30N 29°34' W 090°32'  
2017-Oct-16 07:29N 29°33' W 090°28'3 5.6
2017-Oct-16 07:00N 29°34' W 090°32'3 5.3
2017-Oct-16 06:30N 29°34' W 090°34'3 5.2
2017-Oct-16 06:00N 29°35' W 090°37'2 5.0
2017-Oct-16 05:30N 29°36' W 090°40'2 4.5
2017-Oct-16 05:00N 29°37' W 090°42'2 4.8
2017-Oct-16 04:30N 29°34' W 090°43'3 5.3
2017-Oct-16 04:00N 29°32' W 090°42'3 5.6
2017-Oct-16 03:30N 29°29' W 090°43'3 5.5
2017-Oct-16 03:00N 29°26' W 090°43'1 0.0
2017-Oct-15 01:31N 29°26' W 090°43'0 6.8
2017-Oct-15 01:30N 29°26' W 090°43'3 6.8
2017-Oct-15 01:00N 29°29' W 090°43'3 6.7
2017-Oct-15 00:30N 29°32' W 090°42'2 4.1
2017-Oct-15 00:00N 29°34' W 090°44'1 2.5
2017-Oct-14 23:30N 29°33' W 090°45'1 2.9
2017-Oct-14 23:00N 29°32' W 090°46'3 6.0
2017-Oct-14 22:30N 29°32' W 090°49'  

Dump ship's entire track history